sensor_id;sensor_type;location;lat;lon;timestamp;P1;durP1;ratioP1;P2;durP2;ratioP2
41115;SDS011;26861;51.824;4.682;2023-04-21T00:02:24;0.85;;;0.85;;
41115;SDS011;26861;51.824;4.682;2023-04-21T00:04:51;1.15;;;0.73;;
41115;SDS011;26861;51.824;4.682;2023-04-21T00:07:17;1.20;;;1.10;;
41115;SDS011;26861;51.824;4.682;2023-04-21T00:09:44;1.00;;;1.00;;
41115;SDS011;26861;51.824;4.682;2023-04-21T00:12:10;1.05;;;0.98;;
41115;SDS011;26861;51.824;4.682;2023-04-21T00:14:36;1.02;;;1.02;;
41115;SDS011;26861;51.824;4.682;2023-04-21T00:17:04;1.27;;;1.00;;
41115;SDS011;26861;51.824;4.682;2023-04-21T00:19:30;1.20;;;1.10;;
41115;SDS011;26861;51.824;4.682;2023-04-21T00:21:56;1.15;;;0.80;;
41115;SDS011;26861;51.824;4.682;2023-04-21T00:24:24;0.88;;;0.88;;
41115;SDS011;26861;51.824;4.682;2023-04-21T00:26:50;0.70;;;0.70;;
41115;SDS011;26861;51.824;4.682;2023-04-21T00:29:16;0.80;;;0.80;;
41115;SDS011;26861;51.824;4.682;2023-04-21T00:31:42;2.10;;;1.00;;
41115;SDS011;26861;51.824;4.682;2023-04-21T00:34:08;0.93;;;0.80;;
41115;SDS011;26861;51.824;4.682;2023-04-21T00:36:34;1.45;;;0.98;;
41115;SDS011;26861;51.824;4.682;2023-04-21T00:39:00;0.85;;;0.85;;
41115;SDS011;26861;51.824;4.682;2023-04-21T00:41:27;0.98;;;0.88;;
41115;SDS011;26861;51.824;4.682;2023-04-21T00:44:00;0.90;;;0.90;;
41115;SDS011;26861;51.824;4.682;2023-04-21T00:46:25;1.77;;;1.00;;
41115;SDS011;26861;51.824;4.682;2023-04-21T00:48:52;1.10;;;0.90;;
41115;SDS011;26861;51.824;4.682;2023-04-21T00:51:18;0.93;;;0.80;;
41115;SDS011;26861;51.824;4.682;2023-04-21T00:53:44;1.20;;;0.88;;
41115;SDS011;26861;51.824;4.682;2023-04-21T00:56:10;1.45;;;0.90;;
41115;SDS011;26861;51.824;4.682;2023-04-21T00:58:35;1.25;;;1.15;;
41115;SDS011;26861;51.824;4.682;2023-04-21T01:01:02;1.05;;;1.00;;
41115;SDS011;26861;51.824;4.682;2023-04-21T01:03:29;0.90;;;0.90;;
41115;SDS011;26861;51.824;4.682;2023-04-21T01:05:55;1.33;;;0.90;;
41115;SDS011;26861;51.824;4.682;2023-04-21T01:08:21;0.80;;;0.80;;
41115;SDS011;26861;51.824;4.682;2023-04-21T01:10:47;0.93;;;0.90;;
41115;SDS011;26861;51.824;4.682;2023-04-21T01:13:12;1.15;;;1.05;;
41115;SDS011;26861;51.824;4.682;2023-04-21T01:15:42;1.08;;;0.88;;
41115;SDS011;26861;51.824;4.682;2023-04-21T01:18:08;0.70;;;0.70;;
41115;SDS011;26861;51.824;4.682;2023-04-21T01:20:34;0.68;;;0.68;;
41115;SDS011;26861;51.824;4.682;2023-04-21T01:23:00;1.20;;;1.00;;
41115;SDS011;26861;51.824;4.682;2023-04-21T01:25:26;1.00;;;0.80;;
41115;SDS011;26861;51.824;4.682;2023-04-21T01:27:53;0.88;;;0.80;;
41115;SDS011;26861;51.824;4.682;2023-04-21T01:30:18;1.17;;;0.90;;
41115;SDS011;26861;51.824;4.682;2023-04-21T01:32:44;1.48;;;1.05;;
41115;SDS011;26861;51.824;4.682;2023-04-21T01:35:10;0.82;;;0.82;;
41115;SDS011;26861;51.824;4.682;2023-04-21T01:37:36;0.80;;;0.73;;
41115;SDS011;26861;51.824;4.682;2023-04-21T01:40:04;0.80;;;0.80;;
41115;SDS011;26861;51.824;4.682;2023-04-21T01:42:33;1.08;;;0.90;;
41115;SDS011;26861;51.824;4.682;2023-04-21T01:45:01;0.95;;;0.70;;
41115;SDS011;26861;51.824;4.682;2023-04-21T01:47:27;1.05;;;0.95;;
41115;SDS011;26861;51.824;4.682;2023-04-21T01:49:53;1.80;;;0.80;;
41115;SDS011;26861;51.824;4.682;2023-04-21T01:52:19;1.73;;;1.20;;
41115;SDS011;26861;51.824;4.682;2023-04-21T01:54:45;1.10;;;1.00;;
41115;SDS011;26861;51.824;4.682;2023-04-21T01:57:11;1.48;;;1.23;;
41115;SDS011;26861;51.824;4.682;2023-04-21T01:59:37;0.85;;;0.85;;
41115;SDS011;26861;51.824;4.682;2023-04-21T02:02:03;0.80;;;0.80;;
41115;SDS011;26861;51.824;4.682;2023-04-21T02:04:29;1.02;;;0.93;;
41115;SDS011;26861;51.824;4.682;2023-04-21T02:06:55;0.77;;;0.77;;
41115;SDS011;26861;51.824;4.682;2023-04-21T02:09:21;1.00;;;0.90;;
41115;SDS011;26861;51.824;4.682;2023-04-21T02:11:47;0.85;;;0.82;;
41115;SDS011;26861;51.824;4.682;2023-04-21T02:14:13;0.80;;;0.80;;
41115;SDS011;26861;51.824;4.682;2023-04-21T02:16:39;0.77;;;0.77;;
41115;SDS011;26861;51.824;4.682;2023-04-21T02:19:05;1.05;;;0.98;;
41115;SDS011;26861;51.824;4.682;2023-04-21T02:21:31;1.30;;;0.88;;
41115;SDS011;26861;51.824;4.682;2023-04-21T02:23:57;0.98;;;0.88;;
41115;SDS011;26861;51.824;4.682;2023-04-21T02:26:23;0.90;;;0.90;;
41115;SDS011;26861;51.824;4.682;2023-04-21T02:28:49;0.90;;;0.90;;
41115;SDS011;26861;51.824;4.682;2023-04-21T02:31:16;1.15;;;1.05;;
41115;SDS011;26861;51.824;4.682;2023-04-21T02:33:42;1.48;;;1.00;;
41115;SDS011;26861;51.824;4.682;2023-04-21T02:36:09;1.13;;;1.02;;
41115;SDS011;26861;51.824;4.682;2023-04-21T02:38:35;1.08;;;0.90;;
41115;SDS011;26861;51.824;4.682;2023-04-21T02:41:01;1.30;;;1.20;;
41115;SDS011;26861;51.824;4.682;2023-04-21T02:43:27;1.10;;;1.00;;
41115;SDS011;26861;51.824;4.682;2023-04-21T02:45:52;1.80;;;1.33;;
41115;SDS011;26861;51.824;4.682;2023-04-21T02:48:18;0.80;;;0.80;;
41115;SDS011;26861;51.824;4.682;2023-04-21T02:50:47;0.90;;;0.85;;
41115;SDS011;26861;51.824;4.682;2023-04-21T02:53:13;0.80;;;0.80;;
41115;SDS011;26861;51.824;4.682;2023-04-21T02:55:40;1.10;;;1.00;;
41115;SDS011;26861;51.824;4.682;2023-04-21T02:58:06;1.05;;;0.90;;
41115;SDS011;26861;51.824;4.682;2023-04-21T03:00:32;0.93;;;0.93;;
41115;SDS011;26861;51.824;4.682;2023-04-21T03:02:58;0.90;;;0.90;;
41115;SDS011;26861;51.824;4.682;2023-04-21T03:05:24;1.17;;;0.82;;
41115;SDS011;26861;51.824;4.682;2023-04-21T03:07:50;1.90;;;0.70;;
41115;SDS011;26861;51.824;4.682;2023-04-21T03:10:16;0.90;;;0.77;;
41115;SDS011;26861;51.824;4.682;2023-04-21T03:12:43;0.90;;;0.90;;
41115;SDS011;26861;51.824;4.682;2023-04-21T03:15:09;1.10;;;1.00;;
41115;SDS011;26861;51.824;4.682;2023-04-21T03:17:36;1.00;;;0.90;;
41115;SDS011;26861;51.824;4.682;2023-04-21T03:20:03;1.33;;;1.20;;
41115;SDS011;26861;51.824;4.682;2023-04-21T03:22:30;0.98;;;0.90;;
41115;SDS011;26861;51.824;4.682;2023-04-21T03:24:56;1.23;;;1.13;;
41115;SDS011;26861;51.824;4.682;2023-04-21T03:27:22;1.20;;;1.10;;
41115;SDS011;26861;51.824;4.682;2023-04-21T03:29:48;1.10;;;1.00;;
41115;SDS011;26861;51.824;4.682;2023-04-21T03:32:14;2.08;;;0.80;;
41115;SDS011;26861;51.824;4.682;2023-04-21T03:34:40;1.33;;;1.23;;
41115;SDS011;26861;51.824;4.682;2023-04-21T03:37:06;1.20;;;1.10;;
41115;SDS011;26861;51.824;4.682;2023-04-21T03:39:32;2.10;;;1.02;;
41115;SDS011;26861;51.824;4.682;2023-04-21T03:41:58;1.23;;;1.13;;
41115;SDS011;26861;51.824;4.682;2023-04-21T03:44:25;1.02;;;0.93;;
41115;SDS011;26861;51.824;4.682;2023-04-21T03:46:52;1.13;;;0.80;;
41115;SDS011;26861;51.824;4.682;2023-04-21T03:49:18;1.42;;;1.27;;
41115;SDS011;26861;51.824;4.682;2023-04-21T03:51:44;1.10;;;1.00;;
41115;SDS011;26861;51.824;4.682;2023-04-21T03:54:11;0.93;;;0.90;;
41115;SDS011;26861;51.824;4.682;2023-04-21T03:56:37;1.20;;;0.70;;
41115;SDS011;26861;51.824;4.682;2023-04-21T03:59:02;1.55;;;1.20;;
41115;SDS011;26861;51.824;4.682;2023-04-21T04:01:29;1.25;;;1.02;;
41115;SDS011;26861;51.824;4.682;2023-04-21T04:03:55;1.67;;;1.10;;
41115;SDS011;26861;51.824;4.682;2023-04-21T04:06:21;1.00;;;1.00;;
41115;SDS011;26861;51.824;4.682;2023-04-21T04:08:47;1.42;;;1.00;;
41115;SDS011;26861;51.824;4.682;2023-04-21T04:11:13;1.00;;;1.00;;
41115;SDS011;26861;51.824;4.682;2023-04-21T04:13:39;1.85;;;1.00;;
41115;SDS011;26861;51.824;4.682;2023-04-21T04:16:05;1.85;;;0.90;;
41115;SDS011;26861;51.824;4.682;2023-04-21T04:18:31;1.40;;;0.80;;
41115;SDS011;26861;51.824;4.682;2023-04-21T04:20:57;0.80;;;0.80;;
41115;SDS011;26861;51.824;4.682;2023-04-21T04:23:23;0.82;;;0.82;;
41115;SDS011;26861;51.824;4.682;2023-04-21T04:25:50;1.30;;;0.85;;
41115;SDS011;26861;51.824;4.682;2023-04-21T04:28:16;1.10;;;1.00;;
41115;SDS011;26861;51.824;4.682;2023-04-21T04:30:41;0.82;;;0.82;;
41115;SDS011;26861;51.824;4.682;2023-04-21T04:33:07;1.15;;;1.08;;
41115;SDS011;26861;51.824;4.682;2023-04-21T04:35:34;1.27;;;1.10;;
41115;SDS011;26861;51.824;4.682;2023-04-21T04:38:00;1.40;;;1.30;;
41115;SDS011;26861;51.824;4.682;2023-04-21T04:40:26;1.80;;;1.23;;
41115;SDS011;26861;51.824;4.682;2023-04-21T04:42:52;1.70;;;1.00;;
41115;SDS011;26861;51.824;4.682;2023-04-21T04:45:18;2.90;;;1.38;;
41115;SDS011;26861;51.824;4.682;2023-04-21T04:47:46;1.45;;;1.02;;
41115;SDS011;26861;51.824;4.682;2023-04-21T04:50:12;1.13;;;0.93;;
41115;SDS011;26861;51.824;4.682;2023-04-21T04:52:38;1.23;;;0.98;;
41115;SDS011;26861;51.824;4.682;2023-04-21T04:55:04;1.48;;;1.10;;
41115;SDS011;26861;51.824;4.682;2023-04-21T04:57:31;0.90;;;0.90;;
41115;SDS011;26861;51.824;4.682;2023-04-21T04:59:57;1.20;;;0.90;;
41115;SDS011;26861;51.824;4.682;2023-04-21T05:02:23;1.23;;;1.13;;
41115;SDS011;26861;51.824;4.682;2023-04-21T05:04:49;1.20;;;1.08;;
41115;SDS011;26861;51.824;4.682;2023-04-21T05:07:15;1.38;;;1.20;;
41115;SDS011;26861;51.824;4.682;2023-04-21T05:09:41;1.38;;;1.27;;
41115;SDS011;26861;51.824;4.682;2023-04-21T05:12:07;1.40;;;1.30;;
41115;SDS011;26861;51.824;4.682;2023-04-21T05:14:33;0.88;;;0.88;;
41115;SDS011;26861;51.824;4.682;2023-04-21T05:16:59;1.20;;;1.10;;
41115;SDS011;26861;51.824;4.682;2023-04-21T05:19:25;1.20;;;1.10;;
41115;SDS011;26861;51.824;4.682;2023-04-21T05:21:51;1.15;;;1.05;;
41115;SDS011;26861;51.824;4.682;2023-04-21T05:24:18;1.40;;;1.30;;
41115;SDS011;26861;51.824;4.682;2023-04-21T05:26:48;1.23;;;0.98;;
41115;SDS011;26861;51.824;4.682;2023-04-21T05:29:14;1.48;;;0.90;;
41115;SDS011;26861;51.824;4.682;2023-04-21T05:31:39;1.70;;;1.23;;
41115;SDS011;26861;51.824;4.682;2023-04-21T05:34:05;1.17;;;1.10;;
41115;SDS011;26861;51.824;4.682;2023-04-21T05:36:31;1.70;;;1.30;;
41115;SDS011;26861;51.824;4.682;2023-04-21T05:38:57;1.52;;;1.38;;
41115;SDS011;26861;51.824;4.682;2023-04-21T05:41:23;1.73;;;1.40;;
41115;SDS011;26861;51.824;4.682;2023-04-21T05:43:49;1.27;;;1.17;;
41115;SDS011;26861;51.824;4.682;2023-04-21T05:46:15;1.67;;;1.58;;
41115;SDS011;26861;51.824;4.682;2023-04-21T05:48:40;0.95;;;0.88;;
41115;SDS011;26861;51.824;4.682;2023-04-21T05:51:09;1.77;;;1.55;;
41115;SDS011;26861;51.824;4.682;2023-04-21T05:53:36;1.47;;;1.17;;
41115;SDS011;26861;51.824;4.682;2023-04-21T05:56:02;1.25;;;1.10;;
41115;SDS011;26861;51.824;4.682;2023-04-21T05:58:28;1.95;;;1.75;;
41115;SDS011;26861;51.824;4.682;2023-04-21T06:00:54;1.35;;;1.25;;
41115;SDS011;26861;51.824;4.682;2023-04-21T06:03:20;1.40;;;1.30;;
41115;SDS011;26861;51.824;4.682;2023-04-21T06:05:46;2.15;;;1.48;;
41115;SDS011;26861;51.824;4.682;2023-04-21T06:08:17;3.42;;;2.55;;
41115;SDS011;26861;51.824;4.682;2023-04-21T06:10:43;6.57;;;2.95;;
41115;SDS011;26861;51.824;4.682;2023-04-21T06:13:08;3.72;;;2.22;;
41115;SDS011;26861;51.824;4.682;2023-04-21T06:15:34;2.28;;;2.05;;
41115;SDS011;26861;51.824;4.682;2023-04-21T06:18:00;2.88;;;2.50;;
41115;SDS011;26861;51.824;4.682;2023-04-21T06:20:26;3.95;;;2.22;;
41115;SDS011;26861;51.824;4.682;2023-04-21T06:22:52;3.53;;;2.10;;
41115;SDS011;26861;51.824;4.682;2023-04-21T06:25:18;3.53;;;2.47;;
41115;SDS011;26861;51.824;4.682;2023-04-21T06:27:44;2.63;;;2.13;;
41115;SDS011;26861;51.824;4.682;2023-04-21T06:30:10;2.75;;;2.30;;
41115;SDS011;26861;51.824;4.682;2023-04-21T06:32:36;3.42;;;3.13;;
41115;SDS011;26861;51.824;4.682;2023-04-21T06:35:02;5.45;;;3.15;;
41115;SDS011;26861;51.824;4.682;2023-04-21T06:37:28;3.92;;;3.17;;
41115;SDS011;26861;51.824;4.682;2023-04-21T06:39:54;3.67;;;3.10;;
41115;SDS011;26861;51.824;4.682;2023-04-21T06:42:20;4.75;;;3.08;;
41115;SDS011;26861;51.824;4.682;2023-04-21T06:44:46;5.03;;;2.60;;
41115;SDS011;26861;51.824;4.682;2023-04-21T06:47:12;3.70;;;2.90;;
41115;SDS011;26861;51.824;4.682;2023-04-21T06:49:40;3.97;;;3.03;;
41115;SDS011;26861;51.824;4.682;2023-04-21T06:52:06;2.72;;;2.17;;
41115;SDS011;26861;51.824;4.682;2023-04-21T06:54:32;4.20;;;3.42;;
41115;SDS011;26861;51.824;4.682;2023-04-21T06:56:58;3.63;;;3.13;;
41115;SDS011;26861;51.824;4.682;2023-04-21T06:59:24;4.38;;;3.53;;
41115;SDS011;26861;51.824;4.682;2023-04-21T07:01:50;4.07;;;3.13;;
41115;SDS011;26861;51.824;4.682;2023-04-21T07:04:19;3.88;;;3.28;;
41115;SDS011;26861;51.824;4.682;2023-04-21T07:06:45;4.50;;;3.90;;
41115;SDS011;26861;51.824;4.682;2023-04-21T07:09:12;4.00;;;3.13;;
41115;SDS011;26861;51.824;4.682;2023-04-21T07:11:38;6.40;;;3.42;;
41115;SDS011;26861;51.824;4.682;2023-04-21T07:14:04;3.38;;;3.08;;
41115;SDS011;26861;51.824;4.682;2023-04-21T07:16:30;3.33;;;3.00;;
41115;SDS011;26861;51.824;4.682;2023-04-21T07:18:57;3.13;;;2.83;;
41115;SDS011;26861;51.824;4.682;2023-04-21T07:21:23;4.95;;;3.42;;
41115;SDS011;26861;51.824;4.682;2023-04-21T07:23:49;4.10;;;3.13;;
41115;SDS011;26861;51.824;4.682;2023-04-21T07:26:15;3.53;;;2.42;;
41115;SDS011;26861;51.824;4.682;2023-04-21T07:28:42;3.80;;;2.70;;
41115;SDS011;26861;51.824;4.682;2023-04-21T07:31:08;3.03;;;2.65;;
41115;SDS011;26861;51.824;4.682;2023-04-21T07:33:34;3.20;;;2.60;;
41115;SDS011;26861;51.824;4.682;2023-04-21T07:36:00;3.50;;;3.10;;
41115;SDS011;26861;51.824;4.682;2023-04-21T07:38:26;3.45;;;2.38;;
41115;SDS011;26861;51.824;4.682;2023-04-21T07:40:52;3.35;;;2.65;;
41115;SDS011;26861;51.824;4.682;2023-04-21T07:43:18;4.25;;;3.00;;
41115;SDS011;26861;51.824;4.682;2023-04-21T07:45:44;2.85;;;2.45;;
41115;SDS011;26861;51.824;4.682;2023-04-21T07:48:10;3.80;;;3.47;;
41115;SDS011;26861;51.824;4.682;2023-04-21T07:50:36;4.57;;;3.45;;
41115;SDS011;26861;51.824;4.682;2023-04-21T07:53:02;5.18;;;4.18;;
41115;SDS011;26861;51.824;4.682;2023-04-21T07:55:29;3.80;;;3.05;;
41115;SDS011;26861;51.824;4.682;2023-04-21T07:57:55;5.68;;;4.75;;
41115;SDS011;26861;51.824;4.682;2023-04-21T08:00:21;4.50;;;3.60;;
41115;SDS011;26861;51.824;4.682;2023-04-21T08:02:47;3.47;;;3.17;;
41115;SDS011;26861;51.824;4.682;2023-04-21T08:05:14;3.30;;;3.00;;
41115;SDS011;26861;51.824;4.682;2023-04-21T08:07:39;3.33;;;3.00;;
41115;SDS011;26861;51.824;4.682;2023-04-21T08:10:06;3.63;;;3.20;;
41115;SDS011;26861;51.824;4.682;2023-04-21T08:12:32;2.90;;;2.70;;
41115;SDS011;26861;51.824;4.682;2023-04-21T08:14:58;3.00;;;2.55;;
41115;SDS011;26861;51.824;4.682;2023-04-21T08:17:29;3.20;;;2.90;;
41115;SDS011;26861;51.824;4.682;2023-04-21T08:19:55;2.60;;;2.40;;
41115;SDS011;26861;51.824;4.682;2023-04-21T08:22:21;2.70;;;2.50;;
41115;SDS011;26861;51.824;4.682;2023-04-21T08:24:47;3.25;;;2.60;;
41115;SDS011;26861;51.824;4.682;2023-04-21T08:27:13;3.35;;;2.90;;
41115;SDS011;26861;51.824;4.682;2023-04-21T08:29:39;3.50;;;3.20;;
41115;SDS011;26861;51.824;4.682;2023-04-21T08:32:05;3.22;;;2.78;;
41115;SDS011;26861;51.824;4.682;2023-04-21T08:34:31;4.28;;;3.47;;
41115;SDS011;26861;51.824;4.682;2023-04-21T08:36:57;3.92;;;2.85;;
41115;SDS011;26861;51.824;4.682;2023-04-21T08:39:23;2.75;;;2.47;;
41115;SDS011;26861;51.824;4.682;2023-04-21T08:41:49;3.60;;;3.30;;
41115;SDS011;26861;51.824;4.682;2023-04-21T08:44:15;3.60;;;3.30;;
41115;SDS011;26861;51.824;4.682;2023-04-21T08:46:43;4.50;;;3.67;;
41115;SDS011;26861;51.824;4.682;2023-04-21T08:49:11;5.43;;;3.70;;
41115;SDS011;26861;51.824;4.682;2023-04-21T08:51:42;3.75;;;3.45;;
41115;SDS011;26861;51.824;4.682;2023-04-21T08:54:08;7.57;;;3.17;;
41115;SDS011;26861;51.824;4.682;2023-04-21T08:56:34;4.00;;;3.60;;
41115;SDS011;26861;51.824;4.682;2023-04-21T08:59:00;3.50;;;3.20;;
41115;SDS011;26861;51.824;4.682;2023-04-21T09:01:26;4.15;;;2.95;;
41115;SDS011;26861;51.824;4.682;2023-04-21T09:03:53;4.00;;;2.70;;
41115;SDS011;26861;51.824;4.682;2023-04-21T09:06:39;3.42;;;3.13;;
41115;SDS011;26861;51.824;4.682;2023-04-21T09:09:10;3.13;;;2.83;;
41115;SDS011;26861;51.824;4.682;2023-04-21T09:11:36;3.10;;;2.80;;
41115;SDS011;26861;51.824;4.682;2023-04-21T09:14:03;4.25;;;2.95;;
41115;SDS011;26861;51.824;4.682;2023-04-21T09:16:30;3.78;;;3.33;;
41115;SDS011;26861;51.824;4.682;2023-04-21T09:18:59;5.78;;;4.80;;
41115;SDS011;26861;51.824;4.682;2023-04-21T09:21:28;5.15;;;3.88;;
41115;SDS011;26861;51.824;4.682;2023-04-21T09:23:56;5.13;;;3.67;;
41115;SDS011;26861;51.824;4.682;2023-04-21T09:26:21;4.28;;;3.88;;
41115;SDS011;26861;51.824;4.682;2023-04-21T09:28:48;5.20;;;4.60;;
41115;SDS011;26861;51.824;4.682;2023-04-21T09:31:16;3.88;;;3.50;;
41115;SDS011;26861;51.824;4.682;2023-04-21T09:33:46;3.22;;;2.88;;
41115;SDS011;26861;51.824;4.682;2023-04-21T09:36:23;4.35;;;3.42;;
41115;SDS011;26861;51.824;4.682;2023-04-21T09:41:18;3.17;;;2.88;;
41115;SDS011;26861;51.824;4.682;2023-04-21T09:43:45;3.63;;;3.03;;
41115;SDS011;26861;51.824;4.682;2023-04-21T09:46:11;3.85;;;3.42;;
41115;SDS011;26861;51.824;4.682;2023-04-21T09:48:42;4.43;;;3.90;;
41115;SDS011;26861;51.824;4.682;2023-04-21T09:51:12;3.00;;;2.70;;
41115;SDS011;26861;51.824;4.682;2023-04-21T09:56:08;3.70;;;3.20;;
41115;SDS011;26861;51.824;4.682;2023-04-21T09:58:42;3.83;;;3.25;;
41115;SDS011;26861;51.824;4.682;2023-04-21T10:01:14;2.95;;;2.65;;
41115;SDS011;26861;51.824;4.682;2023-04-21T10:03:41;4.25;;;3.80;;
41115;SDS011;26861;51.824;4.682;2023-04-21T10:06:09;2.90;;;2.60;;
41115;SDS011;26861;51.824;4.682;2023-04-21T10:08:36;4.15;;;3.58;;
41115;SDS011;26861;51.824;4.682;2023-04-21T10:11:02;4.03;;;3.50;;
41115;SDS011;26861;51.824;4.682;2023-04-21T10:13:29;4.43;;;3.28;;
41115;SDS011;26861;51.824;4.682;2023-04-21T10:16:04;4.50;;;3.88;;
41115;SDS011;26861;51.824;4.682;2023-04-21T10:18:34;4.82;;;2.97;;
41115;SDS011;26861;51.824;4.682;2023-04-21T10:21:07;3.78;;;3.25;;
41115;SDS011;26861;51.824;4.682;2023-04-21T10:28:55;3.38;;;2.70;;
41115;SDS011;26861;51.824;4.682;2023-04-21T10:36:31;2.85;;;2.60;;
41115;SDS011;26861;51.824;4.682;2023-04-21T10:39:02;3.97;;;3.58;;
41115;SDS011;26861;51.824;4.682;2023-04-21T10:41:31;5.13;;;3.17;;
41115;SDS011;26861;51.824;4.682;2023-04-21T10:49:08;3.78;;;3.13;;
41115;SDS011;26861;51.824;4.682;2023-04-21T10:54:23;6.30;;;3.13;;
41115;SDS011;26861;51.824;4.682;2023-04-21T10:57:06;3.97;;;3.60;;
41115;SDS011;26861;51.824;4.682;2023-04-21T10:59:34;4.38;;;3.40;;
41115;SDS011;26861;51.824;4.682;2023-04-21T11:02:06;2.42;;;2.17;;
41115;SDS011;26861;51.824;4.682;2023-04-21T11:04:35;3.80;;;2.85;;
41115;SDS011;26861;51.824;4.682;2023-04-21T11:07:09;5.13;;;3.23;;
41115;SDS011;26861;51.824;4.682;2023-04-21T11:09:36;2.45;;;2.25;;
41115;SDS011;26861;51.824;4.682;2023-04-21T11:12:04;2.72;;;2.53;;
41115;SDS011;26861;51.824;4.682;2023-04-21T11:14:35;4.07;;;3.03;;
41115;SDS011;26861;51.824;4.682;2023-04-21T11:17:02;3.38;;;3.05;;
41115;SDS011;26861;51.824;4.682;2023-04-21T11:19:32;3.38;;;2.08;;
41115;SDS011;26861;51.824;4.682;2023-04-21T11:21:58;3.20;;;2.90;;
41115;SDS011;26861;51.824;4.682;2023-04-21T11:24:24;3.75;;;3.28;;
41115;SDS011;26861;51.824;4.682;2023-04-21T11:26:51;3.40;;;2.88;;
41115;SDS011;26861;51.824;4.682;2023-04-21T11:29:16;2.83;;;2.55;;
41115;SDS011;26861;51.824;4.682;2023-04-21T11:31:43;3.10;;;2.42;;
41115;SDS011;26861;51.824;4.682;2023-04-21T11:34:11;3.88;;;3.30;;
41115;SDS011;26861;51.824;4.682;2023-04-21T11:36:40;3.28;;;2.72;;
41115;SDS011;26861;51.824;4.682;2023-04-21T11:39:13;3.80;;;2.95;;
41115;SDS011;26861;51.824;4.682;2023-04-21T11:41:40;2.55;;;1.77;;
41115;SDS011;26861;51.824;4.682;2023-04-21T11:44:11;3.13;;;2.67;;
41115;SDS011;26861;51.824;4.682;2023-04-21T11:46:44;2.40;;;2.20;;
41115;SDS011;26861;51.824;4.682;2023-04-21T11:49:14;2.42;;;2.22;;
41115;SDS011;26861;51.824;4.682;2023-04-21T11:51:42;2.50;;;2.15;;
41115;SDS011;26861;51.824;4.682;2023-04-21T11:54:12;2.60;;;2.40;;
41115;SDS011;26861;51.824;4.682;2023-04-21T11:56:39;2.40;;;2.20;;
41115;SDS011;26861;51.824;4.682;2023-04-21T11:59:09;2.00;;;1.90;;
41115;SDS011;26861;51.824;4.682;2023-04-21T12:01:45;2.97;;;2.67;;
41115;SDS011;26861;51.824;4.682;2023-04-21T12:04:13;1.85;;;1.70;;
41115;SDS011;26861;51.824;4.682;2023-04-21T12:06:46;2.53;;;2.33;;
41115;SDS011;26861;51.824;4.682;2023-04-21T12:09:26;2.10;;;1.80;;
41115;SDS011;26861;51.824;4.682;2023-04-21T12:11:54;3.33;;;2.90;;
41115;SDS011;26861;51.824;4.682;2023-04-21T12:14:22;2.03;;;1.85;;
41115;SDS011;26861;51.824;4.682;2023-04-21T12:16:52;4.78;;;2.45;;
41115;SDS011;26861;51.824;4.682;2023-04-21T12:19:21;3.10;;;2.67;;
41115;SDS011;26861;51.824;4.682;2023-04-21T12:22:00;2.93;;;2.63;;
41115;SDS011;26861;51.824;4.682;2023-04-21T12:24:26;2.40;;;2.20;;
41115;SDS011;26861;51.824;4.682;2023-04-21T12:26:51;3.72;;;2.20;;
41115;SDS011;26861;51.824;4.682;2023-04-21T12:29:18;2.40;;;2.20;;
41115;SDS011;26861;51.824;4.682;2023-04-21T12:31:44;2.65;;;2.17;;
41115;SDS011;26861;51.824;4.682;2023-04-21T12:34:09;1.80;;;1.70;;
41115;SDS011;26861;51.824;4.682;2023-04-21T12:36:35;3.08;;;1.60;;
41115;SDS011;26861;51.824;4.682;2023-04-21T12:39:01;2.22;;;1.98;;
41115;SDS011;26861;51.824;4.682;2023-04-21T12:41:26;3.15;;;2.08;;
41115;SDS011;26861;51.824;4.682;2023-04-21T12:43:52;2.28;;;2.05;;
41115;SDS011;26861;51.824;4.682;2023-04-21T12:46:18;2.22;;;2.03;;
41115;SDS011;26861;51.824;4.682;2023-04-21T12:48:44;2.88;;;2.72;;
41115;SDS011;26861;51.824;4.682;2023-04-21T12:51:10;2.72;;;2.53;;
41115;SDS011;26861;51.824;4.682;2023-04-21T12:53:36;2.05;;;1.95;;
41115;SDS011;26861;51.824;4.682;2023-04-21T12:56:02;2.13;;;1.92;;
41115;SDS011;26861;51.824;4.682;2023-04-21T12:58:28;2.55;;;2.35;;
41115;SDS011;26861;51.824;4.682;2023-04-21T13:00:54;1.85;;;1.75;;
41115;SDS011;26861;51.824;4.682;2023-04-21T13:03:20;2.33;;;2.13;;
41115;SDS011;26861;51.824;4.682;2023-04-21T13:05:46;3.17;;;2.03;;
41115;SDS011;26861;51.824;4.682;2023-04-21T13:08:12;3.10;;;2.78;;
41115;SDS011;26861;51.824;4.682;2023-04-21T13:10:38;3.15;;;2.95;;
41115;SDS011;26861;51.824;4.682;2023-04-21T13:13:05;2.50;;;2.30;;
41115;SDS011;26861;51.824;4.682;2023-04-21T13:15:30;4.20;;;3.20;;
41115;SDS011;26861;51.824;4.682;2023-04-21T13:17:56;2.58;;;2.00;;
41115;SDS011;26861;51.824;4.682;2023-04-21T13:20:22;3.08;;;2.00;;
41115;SDS011;26861;51.824;4.682;2023-04-21T13:22:48;2.03;;;1.88;;
41115;SDS011;26861;51.824;4.682;2023-04-21T13:25:14;2.65;;;1.65;;
41115;SDS011;26861;51.824;4.682;2023-04-21T13:27:40;3.03;;;2.83;;
41115;SDS011;26861;51.824;4.682;2023-04-21T13:30:07;2.50;;;2.30;;
41115;SDS011;26861;51.824;4.682;2023-04-21T13:32:34;2.35;;;2.13;;
41115;SDS011;26861;51.824;4.682;2023-04-21T13:35:03;2.42;;;2.22;;
41115;SDS011;26861;51.824;4.682;2023-04-21T13:37:33;1.98;;;1.85;;
41115;SDS011;26861;51.824;4.682;2023-04-21T13:39:59;2.42;;;2.22;;
41115;SDS011;26861;51.824;4.682;2023-04-21T13:42:25;1.75;;;1.65;;
41115;SDS011;26861;51.824;4.682;2023-04-21T13:44:51;2.28;;;1.80;;
41115;SDS011;26861;51.824;4.682;2023-04-21T13:47:17;2.40;;;2.22;;
41115;SDS011;26861;51.824;4.682;2023-04-21T13:49:43;3.30;;;3.10;;
41115;SDS011;26861;51.824;4.682;2023-04-21T13:52:09;2.83;;;2.17;;
41115;SDS011;26861;51.824;4.682;2023-04-21T13:54:35;2.35;;;2.20;;
41115;SDS011;26861;51.824;4.682;2023-04-21T13:57:01;2.38;;;2.15;;
41115;SDS011;26861;51.824;4.682;2023-04-21T13:59:27;2.05;;;1.92;;
41115;SDS011;26861;51.824;4.682;2023-04-21T14:01:53;2.65;;;2.15;;
41115;SDS011;26861;51.824;4.682;2023-04-21T14:04:19;2.00;;;1.90;;
41115;SDS011;26861;51.824;4.682;2023-04-21T14:06:45;2.20;;;1.98;;
41115;SDS011;26861;51.824;4.682;2023-04-21T14:09:11;2.40;;;2.20;;
41115;SDS011;26861;51.824;4.682;2023-04-21T14:11:37;2.85;;;2.13;;
41115;SDS011;26861;51.824;4.682;2023-04-21T14:14:02;4.30;;;3.90;;
41115;SDS011;26861;51.824;4.682;2023-04-21T14:16:28;3.85;;;3.40;;
41115;SDS011;26861;51.824;4.682;2023-04-21T14:18:54;2.80;;;2.22;;
41115;SDS011;26861;51.824;4.682;2023-04-21T14:21:19;2.25;;;2.05;;
41115;SDS011;26861;51.824;4.682;2023-04-21T14:23:45;2.40;;;2.20;;
41115;SDS011;26861;51.824;4.682;2023-04-21T14:26:11;2.75;;;2.55;;
41115;SDS011;26861;51.824;4.682;2023-04-21T14:28:37;3.55;;;3.25;;
41115;SDS011;26861;51.824;4.682;2023-04-21T14:31:03;3.08;;;2.72;;
41115;SDS011;26861;51.824;4.682;2023-04-21T14:33:29;3.05;;;2.58;;
41115;SDS011;26861;51.824;4.682;2023-04-21T14:35:57;5.20;;;3.58;;
41115;SDS011;26861;51.824;4.682;2023-04-21T14:38:23;2.47;;;2.28;;
41115;SDS011;26861;51.824;4.682;2023-04-21T14:40:49;3.78;;;3.15;;
41115;SDS011;26861;51.824;4.682;2023-04-21T14:43:18;4.45;;;3.70;;
41115;SDS011;26861;51.824;4.682;2023-04-21T14:45:44;3.83;;;3.42;;
41115;SDS011;26861;51.824;4.682;2023-04-21T14:48:10;2.00;;;1.90;;
41115;SDS011;26861;51.824;4.682;2023-04-21T14:50:38;2.88;;;2.67;;
41115;SDS011;26861;51.824;4.682;2023-04-21T14:53:06;4.55;;;4.15;;
41115;SDS011;26861;51.824;4.682;2023-04-21T14:55:32;2.90;;;2.70;;
41115;SDS011;26861;51.824;4.682;2023-04-21T14:57:58;4.13;;;3.83;;
41115;SDS011;26861;51.824;4.682;2023-04-21T15:00:23;3.85;;;3.47;;
41115;SDS011;26861;51.824;4.682;2023-04-21T15:02:49;3.90;;;3.60;;
41115;SDS011;26861;51.824;4.682;2023-04-21T15:05:16;2.42;;;2.10;;
41115;SDS011;26861;51.824;4.682;2023-04-21T15:07:42;2.58;;;2.38;;
41115;SDS011;26861;51.824;4.682;2023-04-21T15:10:11;2.45;;;2.13;;